Pagina principale
METAR-TAF:

METAR-TAF

Aeroporti :

Aeroporto di Venezia-Tessera

Venezia, Italia

latitudine: 45-30N, longitudine: 012-20E, altezza: 2 m

Osservazione

Il bollettino è stato emesso 34 minuti fa, alle 02:20 UTC
Vento 12 kt da sud-ovest
Temperature 17°C
Umidità 88%
Pressione 1011 hPa
Visibilità 10 km o più
nessuna nube inferiore a 1500 m e nessun cumulonembo

METAR: LIPZ 160220Z 22012KT CAVOK 17/15 Q1011 NOSIG

Ora: 04:54 (02:54 UTC)

Previsione

Il bollettino è stato emesso 3 ore e 54 minuti fa, alle 23:00 UTC
Previsione valida dal 16 alle 00 UTC al 17 alle 06 UTC
Vento 5 kt da direzioni variabili
Visibilità 10 km o più
Poco nuvoloso ad un'altezza di 5000 ft
Temporaneamente
dal 16 alle 00 UTC al 16 alle 04 UTC
Visibilità: 1200 m
banchi di nebbia
Evoluzione graduale
dal 16 alle 20 UTC al 16 alle 22 UTC
Visibilità: 4000 m
foschia

TAF: LIPZ 152300Z 1600/1706 VRB05KT 9999 FEW050 TEMPO 1600/1604 1200 BCFG BECMG 1620/1622 4000 BR

Osservazioni e previsioni meteorologiche di più di 4000 aeroporti (messaggi METAR e TAF).

Le stazioni disponibili sono rappresentate dai dischi gialli e rossi sulla carta.

Puntare il mouse per vedere il nome della stazione.

Clicca sopra per visualizzare le osservazioni e previsioni meteorologiche.

Per cambiare la mappa : fare clic sui pulsanti verdi con una croce nera per ingrandire, il pulsante verde con un trattino per diminuire, o sulla freccia verde per le mappe adiacenti.


METAR-TAF: